sensor_id;sensor_type;location;lat;lon;timestamp;P1;durP1;ratioP1;P2;durP2;ratioP2
22284;SDS011;11311;52.192;20.900;2023-08-24T00:00:54;6.40;;;3.50;;
22284;SDS011;11311;52.192;20.900;2023-08-24T00:03:23;6.00;;;3.08;;
22284;SDS011;11311;52.192;20.900;2023-08-24T00:05:53;5.27;;;3.40;;
22284;SDS011;11311;52.192;20.900;2023-08-24T00:08:22;17.80;;;4.53;;
22284;SDS011;11311;52.192;20.900;2023-08-24T00:10:50;8.88;;;3.53;;
22284;SDS011;11311;52.192;20.900;2023-08-24T00:13:19;4.03;;;2.90;;
22284;SDS011;11311;52.192;20.900;2023-08-24T00:15:49;3.80;;;3.38;;
22284;SDS011;11311;52.192;20.900;2023-08-24T00:23:18;8.63;;;3.33;;
22284;SDS011;11311;52.192;20.900;2023-08-24T00:25:46;2.97;;;2.78;;
22284;SDS011;11311;52.192;20.900;2023-08-24T00:28:15;6.68;;;3.03;;
22284;SDS011;11311;52.192;20.900;2023-08-24T00:30:44;5.20;;;3.53;;
22284;SDS011;11311;52.192;20.900;2023-08-24T00:33:14;4.78;;;3.10;;
22284;SDS011;11311;52.192;20.900;2023-08-24T00:35:44;6.38;;;3.20;;
22284;SDS011;11311;52.192;20.900;2023-08-24T00:38:13;6.88;;;3.45;;
22284;SDS011;11311;52.192;20.900;2023-08-24T00:40:42;7.07;;;3.60;;
22284;SDS011;11311;52.192;20.900;2023-08-24T00:43:11;7.82;;;3.33;;
22284;SDS011;11311;52.192;20.900;2023-08-24T00:45:41;5.53;;;3.17;;
22284;SDS011;11311;52.192;20.900;2023-08-24T00:48:11;6.20;;;3.65;;
22284;SDS011;11311;52.192;20.900;2023-08-24T00:50:41;6.10;;;2.92;;
22284;SDS011;11311;52.192;20.900;2023-08-24T00:53:10;4.95;;;4.22;;
22284;SDS011;11311;52.192;20.900;2023-08-24T00:55:39;7.13;;;3.40;;
22284;SDS011;11311;52.192;20.900;2023-08-24T00:58:08;9.68;;;3.55;;
22284;SDS011;11311;52.192;20.900;2023-08-24T01:00:38;4.57;;;3.58;;
22284;SDS011;11311;52.192;20.900;2023-08-24T01:03:07;6.13;;;3.58;;
22284;SDS011;11311;52.192;20.900;2023-08-24T01:05:36;11.52;;;3.47;;
22284;SDS011;11311;52.192;20.900;2023-08-24T01:08:06;5.93;;;4.10;;
22284;SDS011;11311;52.192;20.900;2023-08-24T01:10:38;8.98;;;3.50;;
22284;SDS011;11311;52.192;20.900;2023-08-24T01:13:13;7.10;;;3.92;;
22284;SDS011;11311;52.192;20.900;2023-08-24T01:15:51;5.97;;;3.58;;
22284;SDS011;11311;52.192;20.900;2023-08-24T01:18:24;6.55;;;3.33;;
22284;SDS011;11311;52.192;20.900;2023-08-24T01:20:55;4.90;;;3.33;;
22284;SDS011;11311;52.192;20.900;2023-08-24T01:23:32;4.43;;;3.40;;
22284;SDS011;11311;52.192;20.900;2023-08-24T01:26:15;4.70;;;3.70;;
22284;SDS011;11311;52.192;20.900;2023-08-24T01:28:46;7.30;;;3.35;;
22284;SDS011;11311;52.192;20.900;2023-08-24T01:31:16;12.23;;;3.45;;
22284;SDS011;11311;52.192;20.900;2023-08-24T01:33:48;8.15;;;3.80;;
22284;SDS011;11311;52.192;20.900;2023-08-24T01:36:17;6.65;;;4.35;;
22284;SDS011;11311;52.192;20.900;2023-08-24T01:38:48;8.37;;;3.73;;
22284;SDS011;11311;52.192;20.900;2023-08-24T01:41:28;9.25;;;4.70;;
22284;SDS011;11311;52.192;20.900;2023-08-24T01:44:03;6.82;;;3.58;;
22284;SDS011;11311;52.192;20.900;2023-08-24T01:46:34;4.80;;;3.92;;
22284;SDS011;11311;52.192;20.900;2023-08-24T01:49:04;7.63;;;4.32;;
22284;SDS011;11311;52.192;20.900;2023-08-24T01:51:35;9.30;;;3.60;;
22284;SDS011;11311;52.192;20.900;2023-08-24T01:54:05;9.57;;;4.78;;
22284;SDS011;11311;52.192;20.900;2023-08-24T01:56:36;8.60;;;4.45;;
22284;SDS011;11311;52.192;20.900;2023-08-24T01:59:05;6.22;;;3.05;;
22284;SDS011;11311;52.192;20.900;2023-08-24T02:01:33;3.85;;;3.13;;
22284;SDS011;11311;52.192;20.900;2023-08-24T02:04:02;8.57;;;3.50;;
22284;SDS011;11311;52.192;20.900;2023-08-24T02:06:31;4.40;;;3.08;;
22284;SDS011;11311;52.192;20.900;2023-08-24T02:09:00;5.97;;;3.60;;
22284;SDS011;11311;52.192;20.900;2023-08-24T02:11:29;6.20;;;3.15;;
22284;SDS011;11311;52.192;20.900;2023-08-24T02:13:59;6.60;;;4.13;;
22284;SDS011;11311;52.192;20.900;2023-08-24T02:16:27;5.65;;;3.60;;
22284;SDS011;11311;52.192;20.900;2023-08-24T02:18:57;10.90;;;3.83;;
22284;SDS011;11311;52.192;20.900;2023-08-24T02:21:26;5.75;;;3.65;;
22284;SDS011;11311;52.192;20.900;2023-08-24T02:23:55;5.95;;;3.72;;
22284;SDS011;11311;52.192;20.900;2023-08-24T02:26:24;7.88;;;3.30;;
22284;SDS011;11311;52.192;20.900;2023-08-24T02:28:52;9.75;;;4.47;;
22284;SDS011;11311;52.192;20.900;2023-08-24T02:31:25;10.00;;;3.88;;
22284;SDS011;11311;52.192;20.900;2023-08-24T02:33:55;6.72;;;4.00;;
22284;SDS011;11311;52.192;20.900;2023-08-24T02:36:24;5.05;;;3.70;;
22284;SDS011;11311;52.192;20.900;2023-08-24T02:38:53;13.15;;;4.07;;
22284;SDS011;11311;52.192;20.900;2023-08-24T02:41:22;4.88;;;3.70;;
22284;SDS011;11311;52.192;20.900;2023-08-24T02:43:50;8.57;;;3.72;;
22284;SDS011;11311;52.192;20.900;2023-08-24T02:46:20;12.60;;;4.18;;
22284;SDS011;11311;52.192;20.900;2023-08-24T02:51:20;7.78;;;3.65;;
22284;SDS011;11311;52.192;20.900;2023-08-24T02:53:49;5.95;;;3.65;;
22284;SDS011;11311;52.192;20.900;2023-08-24T02:56:20;8.90;;;3.83;;
22284;SDS011;11311;52.192;20.900;2023-08-24T02:58:49;7.55;;;4.03;;
22284;SDS011;11311;52.192;20.900;2023-08-24T03:01:18;6.68;;;4.07;;
22284;SDS011;11311;52.192;20.900;2023-08-24T03:03:47;13.60;;;5.03;;
22284;SDS011;11311;52.192;20.900;2023-08-24T03:06:18;7.07;;;4.00;;
22284;SDS011;11311;52.192;20.900;2023-08-24T03:11:15;5.25;;;3.90;;
22284;SDS011;11311;52.192;20.900;2023-08-24T03:13:44;8.68;;;4.00;;
22284;SDS011;11311;52.192;20.900;2023-08-24T03:16:13;4.88;;;4.18;;
22284;SDS011;11311;52.192;20.900;2023-08-24T03:18:42;8.73;;;4.00;;
22284;SDS011;11311;52.192;20.900;2023-08-24T03:21:11;6.45;;;4.00;;
22284;SDS011;11311;52.192;20.900;2023-08-24T03:23:42;7.30;;;4.28;;
22284;SDS011;11311;52.192;20.900;2023-08-24T03:28:39;11.32;;;4.40;;
22284;SDS011;11311;52.192;20.900;2023-08-24T03:31:07;14.05;;;4.10;;
22284;SDS011;11311;52.192;20.900;2023-08-24T03:33:36;7.25;;;4.45;;
22284;SDS011;11311;52.192;20.900;2023-08-24T03:36:06;5.20;;;3.72;;
22284;SDS011;11311;52.192;20.900;2023-08-24T03:38:35;6.85;;;4.68;;
22284;SDS011;11311;52.192;20.900;2023-08-24T03:41:06;6.10;;;3.70;;
22284;SDS011;11311;52.192;20.900;2023-08-24T03:43:34;5.90;;;3.72;;
22284;SDS011;11311;52.192;20.900;2023-08-24T03:46:04;7.05;;;4.07;;
22284;SDS011;11311;52.192;20.900;2023-08-24T03:48:33;12.63;;;4.38;;
22284;SDS011;11311;52.192;20.900;2023-08-24T03:51:03;8.75;;;4.80;;
22284;SDS011;11311;52.192;20.900;2023-08-24T03:53:33;4.43;;;3.55;;
22284;SDS011;11311;52.192;20.900;2023-08-24T03:56:02;5.55;;;4.13;;
22284;SDS011;11311;52.192;20.900;2023-08-24T03:58:32;5.20;;;3.40;;
22284;SDS011;11311;52.192;20.900;2023-08-24T04:01:04;8.73;;;4.13;;
22284;SDS011;11311;52.192;20.900;2023-08-24T04:03:34;8.23;;;4.03;;
22284;SDS011;11311;52.192;20.900;2023-08-24T04:06:03;7.13;;;4.07;;
22284;SDS011;11311;52.192;20.900;2023-08-24T04:08:32;8.07;;;4.00;;
22284;SDS011;11311;52.192;20.900;2023-08-24T04:11:02;7.57;;;3.78;;
22284;SDS011;11311;52.192;20.900;2023-08-24T04:13:30;8.35;;;3.95;;
22284;SDS011;11311;52.192;20.900;2023-08-24T04:18:31;13.90;;;3.80;;
22284;SDS011;11311;52.192;20.900;2023-08-24T04:20:59;4.72;;;3.97;;
22284;SDS011;11311;52.192;20.900;2023-08-24T04:23:28;5.95;;;3.88;;
22284;SDS011;11311;52.192;20.900;2023-08-24T04:25:57;5.85;;;3.70;;
22284;SDS011;11311;52.192;20.900;2023-08-24T04:28:26;10.48;;;3.88;;
22284;SDS011;11311;52.192;20.900;2023-08-24T04:30:56;10.68;;;4.05;;
22284;SDS011;11311;52.192;20.900;2023-08-24T04:33:27;8.60;;;3.97;;
22284;SDS011;11311;52.192;20.900;2023-08-24T04:35:56;7.43;;;3.95;;
22284;SDS011;11311;52.192;20.900;2023-08-24T04:38:25;4.72;;;3.63;;
22284;SDS011;11311;52.192;20.900;2023-08-24T04:40:55;6.22;;;3.92;;
22284;SDS011;11311;52.192;20.900;2023-08-24T04:43:24;9.60;;;3.72;;
22284;SDS011;11311;52.192;20.900;2023-08-24T04:45:54;5.28;;;3.95;;
22284;SDS011;11311;52.192;20.900;2023-08-24T04:48:26;6.65;;;4.18;;
22284;SDS011;11311;52.192;20.900;2023-08-24T04:50:59;10.52;;;4.03;;
22284;SDS011;11311;52.192;20.900;2023-08-24T04:53:29;8.05;;;4.00;;
22284;SDS011;11311;52.192;20.900;2023-08-24T04:55:58;10.00;;;3.95;;
22284;SDS011;11311;52.192;20.900;2023-08-24T04:58:27;10.05;;;3.70;;
22284;SDS011;11311;52.192;20.900;2023-08-24T05:00:55;5.47;;;3.92;;
22284;SDS011;11311;52.192;20.900;2023-08-24T05:03:26;7.38;;;3.33;;
22284;SDS011;11311;52.192;20.900;2023-08-24T05:05:55;8.55;;;3.38;;
22284;SDS011;11311;52.192;20.900;2023-08-24T05:08:24;8.85;;;4.40;;
22284;SDS011;11311;52.192;20.900;2023-08-24T05:10:52;9.20;;;3.67;;
22284;SDS011;11311;52.192;20.900;2023-08-24T05:13:21;13.48;;;4.10;;
22284;SDS011;11311;52.192;20.900;2023-08-24T05:15:51;8.38;;;3.50;;
22284;SDS011;11311;52.192;20.900;2023-08-24T05:18:23;19.92;;;3.90;;
22284;SDS011;11311;52.192;20.900;2023-08-24T05:20:53;9.55;;;3.78;;
22284;SDS011;11311;52.192;20.900;2023-08-24T05:23:22;7.00;;;3.55;;
22284;SDS011;11311;52.192;20.900;2023-08-24T05:25:51;12.45;;;3.75;;
22284;SDS011;11311;52.192;20.900;2023-08-24T05:28:20;7.22;;;3.65;;
22284;SDS011;11311;52.192;20.900;2023-08-24T05:30:50;6.28;;;3.60;;
22284;SDS011;11311;52.192;20.900;2023-08-24T05:33:21;8.10;;;3.75;;
22284;SDS011;11311;52.192;20.900;2023-08-24T05:38:21;7.53;;;3.67;;
22284;SDS011;11311;52.192;20.900;2023-08-24T05:40:50;7.25;;;3.88;;
22284;SDS011;11311;52.192;20.900;2023-08-24T05:43:19;18.98;;;3.63;;
22284;SDS011;11311;52.192;20.900;2023-08-24T05:45:48;4.57;;;3.10;;
22284;SDS011;11311;52.192;20.900;2023-08-24T05:48:17;6.95;;;3.58;;
22284;SDS011;11311;52.192;20.900;2023-08-24T05:50:46;6.07;;;3.30;;
22284;SDS011;11311;52.192;20.900;2023-08-24T05:53:17;8.90;;;3.50;;
22284;SDS011;11311;52.192;20.900;2023-08-24T05:55:47;6.25;;;3.67;;
22284;SDS011;11311;52.192;20.900;2023-08-24T05:58:18;10.32;;;4.32;;
22284;SDS011;11311;52.192;20.900;2023-08-24T06:00:47;8.50;;;4.28;;
22284;SDS011;11311;52.192;20.900;2023-08-24T06:03:16;16.33;;;4.00;;
22284;SDS011;11311;52.192;20.900;2023-08-24T06:05:45;8.07;;;3.92;;
22284;SDS011;11311;52.192;20.900;2023-08-24T06:08:14;9.68;;;4.10;;
22284;SDS011;11311;52.192;20.900;2023-08-24T06:10:42;6.95;;;4.13;;
22284;SDS011;11311;52.192;20.900;2023-08-24T06:13:12;6.20;;;4.53;;
22284;SDS011;11311;52.192;20.900;2023-08-24T06:15:41;8.23;;;3.80;;
22284;SDS011;11311;52.192;20.900;2023-08-24T06:18:10;11.88;;;4.07;;
22284;SDS011;11311;52.192;20.900;2023-08-24T06:20:40;7.50;;;3.60;;
22284;SDS011;11311;52.192;20.900;2023-08-24T06:23:08;8.65;;;3.40;;
22284;SDS011;11311;52.192;20.900;2023-08-24T06:25:38;4.80;;;3.63;;
22284;SDS011;11311;52.192;20.900;2023-08-24T06:28:07;6.57;;;3.50;;
22284;SDS011;11311;52.192;20.900;2023-08-24T06:30:38;10.50;;;4.18;;
22284;SDS011;11311;52.192;20.900;2023-08-24T06:33:08;8.02;;;3.80;;
22284;SDS011;11311;52.192;20.900;2023-08-24T06:35:40;4.63;;;3.20;;
22284;SDS011;11311;52.192;20.900;2023-08-24T06:38:09;6.07;;;3.85;;
22284;SDS011;11311;52.192;20.900;2023-08-24T06:40:38;3.38;;;3.08;;
22284;SDS011;11311;52.192;20.900;2023-08-24T06:43:07;7.18;;;3.33;;
22284;SDS011;11311;52.192;20.900;2023-08-24T06:45:39;7.63;;;4.18;;
22284;SDS011;11311;52.192;20.900;2023-08-24T06:48:08;7.97;;;4.65;;
22284;SDS011;11311;52.192;20.900;2023-08-24T06:50:37;5.95;;;3.38;;
22284;SDS011;11311;52.192;20.900;2023-08-24T06:53:07;8.73;;;3.00;;
22284;SDS011;11311;52.192;20.900;2023-08-24T06:55:36;4.97;;;3.22;;
22284;SDS011;11311;52.192;20.900;2023-08-24T06:58:05;6.85;;;3.78;;
22284;SDS011;11311;52.192;20.900;2023-08-24T07:00:34;7.20;;;3.03;;
22284;SDS011;11311;52.192;20.900;2023-08-24T07:03:05;7.40;;;3.88;;
22284;SDS011;11311;52.192;20.900;2023-08-24T07:05:34;9.93;;;3.58;;
22284;SDS011;11311;52.192;20.900;2023-08-24T07:08:03;6.97;;;3.10;;
22284;SDS011;11311;52.192;20.900;2023-08-24T07:10:32;17.35;;;4.05;;
22284;SDS011;11311;52.192;20.900;2023-08-24T07:13:01;5.93;;;3.53;;
22284;SDS011;11311;52.192;20.900;2023-08-24T07:15:30;9.48;;;4.00;;
22284;SDS011;11311;52.192;20.900;2023-08-24T07:18:02;7.38;;;4.30;;
22284;SDS011;11311;52.192;20.900;2023-08-24T07:20:34;9.52;;;3.50;;
22284;SDS011;11311;52.192;20.900;2023-08-24T07:23:04;6.50;;;3.63;;
22284;SDS011;11311;52.192;20.900;2023-08-24T07:25:32;8.63;;;3.53;;
22284;SDS011;11311;52.192;20.900;2023-08-24T07:28:00;10.88;;;3.35;;
22284;SDS011;11311;52.192;20.900;2023-08-24T07:30:31;8.23;;;3.37;;
22284;SDS011;11311;52.192;20.900;2023-08-24T07:33:01;5.82;;;3.05;;
22284;SDS011;11311;52.192;20.900;2023-08-24T07:35:30;4.27;;;2.53;;
22284;SDS011;11311;52.192;20.900;2023-08-24T07:38:00;5.30;;;2.58;;
22284;SDS011;11311;52.192;20.900;2023-08-24T07:40:29;4.20;;;2.47;;
22284;SDS011;11311;52.192;20.900;2023-08-24T07:42:57;5.13;;;3.40;;
22284;SDS011;11311;52.192;20.900;2023-08-24T07:45:27;7.75;;;3.60;;
22284;SDS011;11311;52.192;20.900;2023-08-24T07:47:56;6.57;;;2.90;;
22284;SDS011;11311;52.192;20.900;2023-08-24T07:50:26;6.75;;;2.83;;
22284;SDS011;11311;52.192;20.900;2023-08-24T07:52:54;5.53;;;2.90;;
22284;SDS011;11311;52.192;20.900;2023-08-24T07:55:25;5.88;;;2.83;;
22284;SDS011;11311;52.192;20.900;2023-08-24T07:57:53;4.90;;;3.30;;
22284;SDS011;11311;52.192;20.900;2023-08-24T08:00:22;9.63;;;2.60;;
22284;SDS011;11311;52.192;20.900;2023-08-24T08:02:51;6.97;;;2.85;;
22284;SDS011;11311;52.192;20.900;2023-08-24T08:05:20;6.88;;;2.95;;
22284;SDS011;11311;52.192;20.900;2023-08-24T08:07:49;10.63;;;2.97;;
22284;SDS011;11311;52.192;20.900;2023-08-24T08:10:18;4.82;;;2.20;;
22284;SDS011;11311;52.192;20.900;2023-08-24T08:12:49;9.07;;;2.53;;
22284;SDS011;11311;52.192;20.900;2023-08-24T08:15:18;6.50;;;2.88;;
22284;SDS011;11311;52.192;20.900;2023-08-24T08:17:47;6.07;;;3.05;;
22284;SDS011;11311;52.192;20.900;2023-08-24T08:20:17;8.27;;;2.22;;
22284;SDS011;11311;52.192;20.900;2023-08-24T08:22:46;6.05;;;2.35;;
22284;SDS011;11311;52.192;20.900;2023-08-24T08:25:15;5.13;;;2.67;;
22284;SDS011;11311;52.192;20.900;2023-08-24T08:30:15;6.40;;;2.67;;
22284;SDS011;11311;52.192;20.900;2023-08-24T08:32:43;9.57;;;2.60;;
22284;SDS011;11311;52.192;20.900;2023-08-24T08:35:12;5.60;;;2.85;;
22284;SDS011;11311;52.192;20.900;2023-08-24T08:37:42;5.80;;;2.88;;
22284;SDS011;11311;52.192;20.900;2023-08-24T08:40:11;4.97;;;2.47;;
22284;SDS011;11311;52.192;20.900;2023-08-24T08:42:40;4.60;;;2.50;;
22284;SDS011;11311;52.192;20.900;2023-08-24T08:45:09;9.45;;;2.85;;
22284;SDS011;11311;52.192;20.900;2023-08-24T08:47:40;6.57;;;2.50;;
22284;SDS011;11311;52.192;20.900;2023-08-24T08:50:09;5.80;;;2.75;;
22284;SDS011;11311;52.192;20.900;2023-08-24T08:52:38;7.53;;;2.70;;
22284;SDS011;11311;52.192;20.900;2023-08-24T08:55:06;5.90;;;2.95;;
22284;SDS011;11311;52.192;20.900;2023-08-24T08:57:37;4.78;;;3.03;;
22284;SDS011;11311;52.192;20.900;2023-08-24T09:00:10;4.90;;;2.97;;
22284;SDS011;11311;52.192;20.900;2023-08-24T09:02:43;13.68;;;3.45;;
22284;SDS011;11311;52.192;20.900;2023-08-24T09:05:14;10.73;;;2.92;;
22284;SDS011;11311;52.192;20.900;2023-08-24T09:07:43;6.43;;;2.70;;
22284;SDS011;11311;52.192;20.900;2023-08-24T09:10:13;5.63;;;2.80;;
22284;SDS011;11311;52.192;20.900;2023-08-24T09:12:41;4.63;;;2.90;;
22284;SDS011;11311;52.192;20.900;2023-08-24T09:15:10;4.80;;;2.95;;
22284;SDS011;11311;52.192;20.900;2023-08-24T09:17:45;6.85;;;3.00;;
22284;SDS011;11311;52.192;20.900;2023-08-24T09:20:17;3.85;;;2.55;;
22284;SDS011;11311;52.192;20.900;2023-08-24T09:22:46;7.25;;;3.25;;
22284;SDS011;11311;52.192;20.900;2023-08-24T09:25:14;5.78;;;2.88;;
22284;SDS011;11311;52.192;20.900;2023-08-24T09:27:43;10.30;;;3.13;;
22284;SDS011;11311;52.192;20.900;2023-08-24T09:30:12;3.38;;;3.03;;
22284;SDS011;11311;52.192;20.900;2023-08-24T09:32:42;8.27;;;2.75;;
22284;SDS011;11311;52.192;20.900;2023-08-24T09:35:13;4.77;;;2.90;;
22284;SDS011;11311;52.192;20.900;2023-08-24T09:37:43;4.85;;;2.95;;
22284;SDS011;11311;52.192;20.900;2023-08-24T09:42:41;5.85;;;2.50;;
22284;SDS011;11311;52.192;20.900;2023-08-24T09:45:11;63.92;;;6.05;;
22284;SDS011;11311;52.192;20.900;2023-08-24T09:47:45;13.10;;;3.22;;
22284;SDS011;11311;52.192;20.900;2023-08-24T09:50:16;4.10;;;2.72;;
22284;SDS011;11311;52.192;20.900;2023-08-24T09:52:44;3.65;;;2.40;;
22284;SDS011;11311;52.192;20.900;2023-08-24T09:55:18;4.57;;;2.33;;
22284;SDS011;11311;52.192;20.900;2023-08-24T09:57:50;12.43;;;2.72;;
22284;SDS011;11311;52.192;20.900;2023-08-24T10:00:22;8.95;;;2.83;;
22284;SDS011;11311;52.192;20.900;2023-08-24T10:02:52;2.92;;;2.35;;
22284;SDS011;11311;52.192;20.900;2023-08-24T10:07:55;3.42;;;2.20;;
22284;SDS011;11311;52.192;20.900;2023-08-24T10:10:25;5.82;;;2.88;;
22284;SDS011;11311;52.192;20.900;2023-08-24T10:12:56;7.32;;;2.55;;
22284;SDS011;11311;52.192;20.900;2023-08-24T10:15:27;9.45;;;2.90;;
22284;SDS011;11311;52.192;20.900;2023-08-24T10:17:56;4.22;;;2.95;;
22284;SDS011;11311;52.192;20.900;2023-08-24T10:20:28;5.10;;;3.00;;
22284;SDS011;11311;52.192;20.900;2023-08-24T10:22:59;4.57;;;2.70;;
22284;SDS011;11311;52.192;20.900;2023-08-24T10:25:31;4.57;;;2.70;;
22284;SDS011;11311;52.192;20.900;2023-08-24T10:28:01;2.22;;;1.90;;
22284;SDS011;11311;52.192;20.900;2023-08-24T10:30:30;2.35;;;2.15;;
22284;SDS011;11311;52.192;20.900;2023-08-24T10:32:59;5.45;;;2.47;;
22284;SDS011;11311;52.192;20.900;2023-08-24T10:35:33;4.35;;;2.42;;
22284;SDS011;11311;52.192;20.900;2023-08-24T10:38:02;3.95;;;2.08;;
22284;SDS011;11311;52.192;20.900;2023-08-24T10:40:31;4.43;;;2.60;;
22284;SDS011;11311;52.192;20.900;2023-08-24T10:43:03;2.92;;;2.25;;
22284;SDS011;11311;52.192;20.900;2023-08-24T10:45:53;4.28;;;2.20;;
22284;SDS011;11311;52.192;20.900;2023-08-24T10:48:23;5.35;;;2.17;;
22284;SDS011;11311;52.192;20.900;2023-08-24T10:53:53;5.40;;;2.30;;
22284;SDS011;11311;52.192;20.900;2023-08-24T10:56:29;4.20;;;2.50;;
22284;SDS011;11311;52.192;20.900;2023-08-24T10:59:09;3.65;;;2.55;;
22284;SDS011;11311;52.192;20.900;2023-08-24T11:01:40;7.28;;;2.17;;
22284;SDS011;11311;52.192;20.900;2023-08-24T11:04:10;3.53;;;2.38;;
22284;SDS011;11311;52.192;20.900;2023-08-24T11:09:27;4.45;;;2.47;;
22284;SDS011;11311;52.192;20.900;2023-08-24T11:12:13;6.85;;;2.00;;
22284;SDS011;11311;52.192;20.900;2023-08-24T11:14:48;4.10;;;2.13;;
22284;SDS011;11311;52.192;20.900;2023-08-24T11:17:21;4.30;;;2.45;;
22284;SDS011;11311;52.192;20.900;2023-08-24T11:19:50;9.18;;;2.45;;
22284;SDS011;11311;52.192;20.900;2023-08-24T11:22:21;3.00;;;1.77;;
22284;SDS011;11311;52.192;20.900;2023-08-24T11:24:50;3.35;;;2.55;;
22284;SDS011;11311;52.192;20.900;2023-08-24T11:27:20;6.32;;;2.55;;
22284;SDS011;11311;52.192;20.900;2023-08-24T11:29:57;4.22;;;2.38;;
22284;SDS011;11311;52.192;20.900;2023-08-24T11:32:26;5.07;;;2.03;;
22284;SDS011;11311;52.192;20.900;2023-08-24T11:34:55;5.03;;;2.33;;
22284;SDS011;11311;52.192;20.900;2023-08-24T11:37:25;8.15;;;2.40;;
22284;SDS011;11311;52.192;20.900;2023-08-24T11:39:54;6.57;;;2.72;;
22284;SDS011;11311;52.192;20.900;2023-08-24T11:42:22;3.67;;;2.67;;
22284;SDS011;11311;52.192;20.900;2023-08-24T11:44:51;2.97;;;2.42;;
22284;SDS011;11311;52.192;20.900;2023-08-24T11:47:19;8.60;;;2.15;;
22284;SDS011;11311;52.192;20.900;2023-08-24T11:49:50;4.22;;;2.00;;
22284;SDS011;11311;52.192;20.900;2023-08-24T11:52:18;4.45;;;2.42;;
22284;SDS011;11311;52.192;20.900;2023-08-24T11:54:50;4.97;;;2.50;;
22284;SDS011;11311;52.192;20.900;2023-08-24T11:57:19;7.90;;;2.42;;
22284;SDS011;11311;52.192;20.900;2023-08-24T11:59:49;5.65;;;2.10;;
22284;SDS011;11311;52.192;20.900;2023-08-24T12:02:18;2.25;;;1.77;;
22284;SDS011;11311;52.192;20.900;2023-08-24T12:04:48;3.55;;;1.85;;
22284;SDS011;11311;52.192;20.900;2023-08-24T12:07:17;4.28;;;2.13;;
22284;SDS011;11311;52.192;20.900;2023-08-24T12:09:45;5.03;;;2.35;;
22284;SDS011;11311;52.192;20.900;2023-08-24T12:12:16;3.40;;;2.08;;
22284;SDS011;11311;52.192;20.900;2023-08-24T12:14:48;6.15;;;2.17;;
22284;SDS011;11311;52.192;20.900;2023-08-24T12:17:17;4.72;;;1.80;;
22284;SDS011;11311;52.192;20.900;2023-08-24T12:19:53;7.75;;;2.30;;
22284;SDS011;11311;52.192;20.900;2023-08-24T12:24:53;5.75;;;2.10;;
22284;SDS011;11311;52.192;20.900;2023-08-24T12:27:24;1.92;;;1.75;;
22284;SDS011;11311;52.192;20.900;2023-08-24T12:29:53;7.10;;;1.95;;
22284;SDS011;11311;52.192;20.900;2023-08-24T12:32:22;2.75;;;2.03;;
22284;SDS011;11311;52.192;20.900;2023-08-24T12:34:52;2.92;;;2.17;;
22284;SDS011;11311;52.192;20.900;2023-08-24T12:39:50;5.28;;;2.67;;
22284;SDS011;11311;52.192;20.900;2023-08-24T12:42:20;3.38;;;2.30;;
22284;SDS011;11311;52.192;20.900;2023-08-24T12:44:50;13.30;;;3.05;;
22284;SDS011;11311;52.192;20.900;2023-08-24T12:47:18;2.70;;;2.00;;
22284;SDS011;11311;52.192;20.900;2023-08-24T12:49:46;5.70;;;2.33;;
22284;SDS011;11311;52.192;20.900;2023-08-24T12:52:15;3.03;;;2.42;;
22284;SDS011;11311;52.192;20.900;2023-08-24T12:54:44;3.60;;;2.13;;
22284;SDS011;11311;52.192;20.900;2023-08-24T12:57:12;2.20;;;2.00;;
22284;SDS011;11311;52.192;20.900;2023-08-24T12:59:42;6.28;;;2.35;;
22284;SDS011;11311;52.192;20.900;2023-08-24T13:02:12;3.47;;;2.25;;
22284;SDS011;11311;52.192;20.900;2023-08-24T13:04:54;5.13;;;1.92;;
22284;SDS011;11311;52.192;20.900;2023-08-24T13:07:28;8.45;;;2.30;;
22284;SDS011;11311;52.192;20.900;2023-08-24T13:09:56;2.42;;;2.03;;
22284;SDS011;11311;52.192;20.900;2023-08-24T13:12:26;4.13;;;2.55;;
22284;SDS011;11311;52.192;20.900;2023-08-24T13:14:56;2.95;;;2.45;;
22284;SDS011;11311;52.192;20.900;2023-08-24T13:17:26;7.53;;;3.03;;
22284;SDS011;11311;52.192;20.900;2023-08-24T13:19:54;4.13;;;2.22;;
22284;SDS011;11311;52.192;20.900;2023-08-24T13:22:23;9.48;;;2.80;;
22284;SDS011;11311;52.192;20.900;2023-08-24T13:24:51;3.58;;;2.22;;
22284;SDS011;11311;52.192;20.900;2023-08-24T13:27:20;7.22;;;2.42;;
22284;SDS011;11311;52.192;20.900;2023-08-24T13:29:51;7.00;;;2.78;;
22284;SDS011;11311;52.192;20.900;2023-08-24T13:32:23;8.65;;;3.10;;
22284;SDS011;11311;52.192;20.900;2023-08-24T13:34:53;6.25;;;2.33;;
22284;SDS011;11311;52.192;20.900;2023-08-24T13:37:23;6.03;;;2.50;;
22284;SDS011;11311;52.192;20.900;2023-08-24T13:39:52;2.33;;;2.13;;
22284;SDS011;11311;52.192;20.900;2023-08-24T13:42:21;8.68;;;2.33;;
22284;SDS011;11311;52.192;20.900;2023-08-24T13:44:50;4.87;;;2.83;;
22284;SDS011;11311;52.192;20.900;2023-08-24T13:47:19;5.32;;;2.58;;
22284;SDS011;11311;52.192;20.900;2023-08-24T13:49:48;5.40;;;2.70;;
22284;SDS011;11311;52.192;20.900;2023-08-24T13:52:20;6.83;;;2.27;;
22284;SDS011;11311;52.192;20.900;2023-08-24T13:54:49;5.68;;;2.33;;
22284;SDS011;11311;52.192;20.900;2023-08-24T13:57:37;7.15;;;2.60;;
22284;SDS011;11311;52.192;20.900;2023-08-24T14:00:06;4.72;;;2.30;;
22284;SDS011;11311;52.192;20.900;2023-08-24T14:02:39;9.75;;;2.92;;
22284;SDS011;11311;52.192;20.900;2023-08-24T14:05:08;2.70;;;1.98;;
22284;SDS011;11311;52.192;20.900;2023-08-24T14:07:40;3.80;;;2.03;;
22284;SDS011;11311;52.192;20.900;2023-08-24T14:10:10;6.70;;;2.35;;
22284;SDS011;11311;52.192;20.900;2023-08-24T14:12:39;9.37;;;2.43;;
22284;SDS011;11311;52.192;20.900;2023-08-24T14:15:07;11.05;;;2.28;;
22284;SDS011;11311;52.192;20.900;2023-08-24T14:17:38;5.20;;;2.00;;
22284;SDS011;11311;52.192;20.900;2023-08-24T14:20:07;3.58;;;2.58;;
22284;SDS011;11311;52.192;20.900;2023-08-24T14:22:35;8.40;;;2.33;;
22284;SDS011;11311;52.192;20.900;2023-08-24T14:25:06;4.77;;;2.53;;
22284;SDS011;11311;52.192;20.900;2023-08-24T14:27:37;3.63;;;2.35;;
22284;SDS011;11311;52.192;20.900;2023-08-24T14:30:13;4.13;;;2.30;;
22284;SDS011;11311;52.192;20.900;2023-08-24T14:32:42;4.10;;;2.63;;
22284;SDS011;11311;52.192;20.900;2023-08-24T14:35:11;10.18;;;2.30;;
22284;SDS011;11311;52.192;20.900;2023-08-24T14:37:39;3.42;;;2.15;;
22284;SDS011;11311;52.192;20.900;2023-08-24T14:40:12;6.43;;;2.10;;
22284;SDS011;11311;52.192;20.900;2023-08-24T14:42:44;4.28;;;2.17;;
22284;SDS011;11311;52.192;20.900;2023-08-24T14:45:13;3.72;;;2.00;;
22284;SDS011;11311;52.192;20.900;2023-08-24T14:47:41;9.95;;;2.85;;
22284;SDS011;11311;52.192;20.900;2023-08-24T14:50:10;4.72;;;2.08;;
22284;SDS011;11311;52.192;20.900;2023-08-24T14:52:38;6.28;;;2.47;;
22284;SDS011;11311;52.192;20.900;2023-08-24T14:55:08;5.63;;;2.55;;
22284;SDS011;11311;52.192;20.900;2023-08-24T14:57:40;5.47;;;1.90;;
22284;SDS011;11311;52.192;20.900;2023-08-24T15:00:09;4.50;;;2.03;;
22284;SDS011;11311;52.192;20.900;2023-08-24T15:02:38;8.82;;;2.20;;
22284;SDS011;11311;52.192;20.900;2023-08-24T15:05:09;3.72;;;1.98;;
22284;SDS011;11311;52.192;20.900;2023-08-24T15:07:38;3.90;;;2.37;;
22284;SDS011;11311;52.192;20.900;2023-08-24T15:10:06;3.15;;;2.00;;
22284;SDS011;11311;52.192;20.900;2023-08-24T15:12:35;3.77;;;1.93;;
22284;SDS011;11311;52.192;20.900;2023-08-24T15:15:05;9.55;;;2.10;;
22284;SDS011;11311;52.192;20.900;2023-08-24T15:17:34;6.55;;;2.10;;
22284;SDS011;11311;52.192;20.900;2023-08-24T15:20:03;6.13;;;1.98;;
22284;SDS011;11311;52.192;20.900;2023-08-24T15:22:36;4.45;;;2.00;;
22284;SDS011;11311;52.192;20.900;2023-08-24T15:25:05;8.00;;;2.35;;